createdAt,value
2016-08-08T00:00:00.883Z,21.5
2016-08-08T00:00:10.881Z,21.5
2016-08-08T00:00:20.884Z,21.5
2016-08-08T00:00:30.872Z,21.5
2016-08-08T00:00:40.869Z,21.5
2016-08-08T00:00:50.864Z,21.5
2016-08-08T00:01:00.860Z,21.5
2016-08-08T00:01:10.854Z,21.5
2016-08-08T00:01:20.850Z,21.5
2016-08-08T00:01:30.846Z,21.5
2016-08-08T00:01:40.841Z,21.5
2016-08-08T00:01:50.837Z,21.5
2016-08-08T00:02:00.832Z,21.5
2016-08-08T00:02:10.828Z,21.5
2016-08-08T00:02:20.830Z,21.5
2016-08-08T00:02:30.826Z,21.5
2016-08-08T00:02:41.541Z,21.5
2016-08-08T00:02:50.810Z,21.5
2016-08-08T00:03:00.806Z,21.5
2016-08-08T00:03:10.800Z,21.5
2016-08-08T00:03:21.526Z,21.5
2016-08-08T00:03:30.793Z,21.5
2016-08-08T00:03:40.788Z,21.5
2016-08-08T00:03:50.786Z,21.5
2016-08-08T00:04:00.779Z,21.5
2016-08-08T00:04:10.775Z,21.5
2016-08-08T00:04:20.770Z,21.5
2016-08-08T00:04:30.766Z,21.5
2016-08-08T00:04:40.760Z,21.5
2016-08-08T00:04:50.755Z,21.5
2016-08-08T00:05:00.750Z,21.5
2016-08-08T00:05:10.749Z,21.5
2016-08-08T00:05:20.741Z,21.5
2016-08-08T00:05:30.736Z,21.5
2016-08-08T00:05:40.733Z,21.5
2016-08-08T00:05:50.731Z,21.5
2016-08-08T00:06:00.725Z,21.5
2016-08-08T00:06:10.720Z,21.5
2016-08-08T00:06:20.714Z,21.5
2016-08-08T00:06:30.713Z,21.5
2016-08-08T00:06:40.710Z,21.5
2016-08-08T00:06:50.703Z,21.5
2016-08-08T00:07:00.698Z,21.5
2016-08-08T00:07:10.697Z,21.5
2016-08-08T00:07:20.692Z,21.5
2016-08-08T00:07:30.685Z,21.5
2016-08-08T00:07:40.682Z,21.5
2016-08-08T00:07:50.679Z,21.5
2016-08-08T00:08:00.671Z,21.5
2016-08-08T00:08:10.667Z,21.5
2016-08-08T00:08:20.663Z,21.5
2016-08-08T00:08:30.656Z,21.5
2016-08-08T00:08:40.656Z,21.5
2016-08-08T00:08:50.651Z,21.5
2016-08-08T00:09:00.647Z,21.5
2016-08-08T00:09:11.371Z,21.5
2016-08-08T00:09:20.641Z,21.5
2016-08-08T00:09:30.634Z,21.5
2016-08-08T00:09:40.634Z,21.5
2016-08-08T00:09:50.621Z,21.5
2016-08-08T00:10:00.620Z,21.5
2016-08-08T00:10:10.613Z,21.5
2016-08-08T00:10:20.611Z,21.5
2016-08-08T00:10:30.605Z,21.5
2016-08-08T00:10:40.600Z,21.5
2016-08-08T00:10:50.605Z,21.5
2016-08-08T00:11:00.591Z,21.5
2016-08-08T00:11:10.588Z,21.5
2016-08-08T00:11:20.584Z,21.5
2016-08-08T00:11:30.579Z,21.5
2016-08-08T00:11:40.575Z,21.5
2016-08-08T00:11:50.571Z,21.5
2016-08-08T00:12:00.570Z,21.5
2016-08-08T00:12:10.563Z,21.5
2016-08-08T00:12:20.559Z,21.5
2016-08-08T00:12:30.552Z,21.5
2016-08-08T00:12:40.547Z,21.5
2016-08-08T00:12:50.543Z,21.5
2016-08-08T00:13:00.538Z,21.5
2016-08-08T00:13:10.536Z,21.5
2016-08-08T00:13:20.530Z,21.5
2016-08-08T00:13:30.526Z,21.5
2016-08-08T00:13:40.521Z,21.5
2016-08-08T00:13:50.515Z,21.5
2016-08-08T00:14:00.514Z,21.5
2016-08-08T00:14:10.507Z,21.5
2016-08-08T00:14:20.505Z,21.5
2016-08-08T00:14:30.499Z,21.5
2016-08-08T00:14:40.498Z,21.5
2016-08-08T00:14:50.490Z,21.5
2016-08-08T00:15:00.486Z,21.5
2016-08-08T00:15:10.481Z,21.5
2016-08-08T00:15:20.479Z,21.5
2016-08-08T00:15:30.473Z,21.5
2016-08-08T00:15:40.470Z,21.5
2016-08-08T00:15:50.461Z,21.5
2016-08-08T00:16:00.465Z,21.5
2016-08-08T00:16:10.452Z,21.5
2016-08-08T00:16:21.179Z,21.5
2016-08-08T00:16:30.444Z,21.5
2016-08-08T00:16:40.441Z,21.5
2016-08-08T00:16:50.438Z,21.5
2016-08-08T00:17:00.432Z,21.5
2016-08-08T00:17:10.429Z,21.5
2016-08-08T00:17:20.423Z,21.5
2016-08-08T00:17:30.417Z,21.5
2016-08-08T00:17:40.416Z,21.5
2016-08-08T00:17:50.409Z,21.5
2016-08-08T00:18:00.409Z,21.5
2016-08-08T00:18:10.399Z,21.5
2016-08-08T00:18:20.396Z,21.5
2016-08-08T00:18:30.392Z,21.5
2016-08-08T00:18:40.389Z,21.5
2016-08-08T00:18:50.382Z,21.5
2016-08-08T00:19:00.378Z,21.5
2016-08-08T00:19:10.374Z,21.5
2016-08-08T00:19:20.370Z,21.5
2016-08-08T00:19:30.363Z,21.5
2016-08-08T00:19:40.363Z,21.5
2016-08-08T00:19:50.358Z,21.5
2016-08-08T00:20:00.352Z,21.5
2016-08-08T00:20:10.350Z,21.5
2016-08-08T00:20:20.344Z,21.5
2016-08-08T00:20:30.338Z,21.5
2016-08-08T00:20:40.335Z,21.5
2016-08-08T00:20:50.329Z,21.5
2016-08-08T00:21:00.326Z,21.5
2016-08-08T00:21:10.322Z,21.5
2016-08-08T00:21:20.317Z,21.5
2016-08-08T00:21:30.311Z,21.5
2016-08-08T00:21:40.307Z,21.5
2016-08-08T00:21:50.303Z,21.5
2016-08-08T00:22:00.298Z,21.5
2016-08-08T00:22:10.292Z,21.5
2016-08-08T00:22:20.290Z,21.5
2016-08-08T00:22:30.285Z,21.5
2016-08-08T00:22:40.281Z,21.5
2016-08-08T00:22:50.275Z,21.5
2016-08-08T00:23:00.272Z,21.5
2016-08-08T00:23:10.267Z,21.5
2016-08-08T00:23:20.260Z,21.5
2016-08-08T00:23:30.256Z,21.5
2016-08-08T00:23:40.255Z,21.5
2016-08-08T00:23:50.251Z,21.5
2016-08-08T00:24:00.245Z,21.5
2016-08-08T00:24:10.244Z,21.5
2016-08-08T00:24:20.967Z,21.5
2016-08-08T00:24:30.231Z,21.5
2016-08-08T00:24:40.228Z,21.5
2016-08-08T00:24:50.223Z,21.5
2016-08-08T00:25:00.218Z,21.5
2016-08-08T00:25:10.215Z,21.5
2016-08-08T00:25:20.211Z,21.5
2016-08-08T00:25:30.205Z,21.5
2016-08-08T00:25:40.199Z,21.5
2016-08-08T00:25:50.198Z,21.5
2016-08-08T00:26:00.191Z,21.5
2016-08-08T00:26:10.188Z,21.5
2016-08-08T00:26:20.185Z,21.5
2016-08-08T00:26:30.179Z,21.5
2016-08-08T00:26:40.175Z,21.5
2016-08-08T00:26:50.171Z,21.5
2016-08-08T00:27:00.167Z,21.5
2016-08-08T00:27:10.163Z,21.5
2016-08-08T00:27:20.155Z,21.5
2016-08-08T00:27:30.152Z,21.5
2016-08-08T00:27:40.149Z,21.5
2016-08-08T00:27:50.142Z,21.5
2016-08-08T00:28:00.136Z,21.5
2016-08-08T00:28:10.132Z,21.5
2016-08-08T00:28:20.128Z,21.5
2016-08-08T00:28:30.130Z,21.5
2016-08-08T00:28:40.120Z,21.5
2016-08-08T00:28:50.115Z,21.5
2016-08-08T00:29:00.112Z,21.5
2016-08-08T00:29:10.107Z,21.5
2016-08-08T00:29:20.102Z,21.5
2016-08-08T00:29:30.098Z,21.5
2016-08-08T00:29:40.091Z,21.5
2016-08-08T00:29:50.089Z,21.5
2016-08-08T00:30:00.082Z,21.5
2016-08-08T00:30:10.079Z,21.5
2016-08-08T00:30:20.075Z,21.5
2016-08-08T00:30:30.073Z,21.5
2016-08-08T00:30:40.068Z,21.5
2016-08-08T00:30:50.061Z,21.5
2016-08-08T00:31:00.057Z,21.5
2016-08-08T00:31:10.052Z,21.5
2016-08-08T00:31:20.050Z,21.5
2016-08-08T00:31:30.046Z,21.5
2016-08-08T00:31:40.040Z,21.5
2016-08-08T00:31:50.037Z,21.5
2016-08-08T00:32:00.032Z,21.5
2016-08-08T00:32:10.030Z,21.5
2016-08-08T00:32:20.022Z,21.5
2016-08-08T00:32:30.017Z,21.5
2016-08-08T00:32:40.013Z,21.5
2016-08-08T00:32:50.009Z,21.5
2016-08-08T00:33:00.005Z,21.5
2016-08-08T00:33:10.001Z,21.4
2016-08-08T00:33:19.996Z,21.4
2016-08-08T00:33:29.991Z,21.4
2016-08-08T00:33:39.985Z,21.4
2016-08-08T00:33:49.981Z,21.4
2016-08-08T00:33:59.979Z,21.4
2016-08-08T00:34:09.979Z,21.4
2016-08-08T00:34:19.967Z,21.4
2016-08-08T00:34:29.964Z,21.4
2016-08-08T00:34:39.960Z,21.4
2016-08-08T00:34:49.958Z,21.4
2016-08-08T00:34:59.953Z,21.4
2016-08-08T00:35:09.946Z,21.4
2016-08-08T00:35:19.941Z,21.4
2016-08-08T00:35:29.937Z,21.4
2016-08-08T00:35:39.932Z,21.4
2016-08-08T00:35:49.928Z,21.4
2016-08-08T00:35:59.924Z,21.4
2016-08-08T00:36:09.923Z,21.4
2016-08-08T00:36:19.915Z,21.4
2016-08-08T00:36:29.917Z,21.4
2016-08-08T00:36:40.636Z,21.4
2016-08-08T00:36:49.904Z,21.4
2016-08-08T00:36:59.898Z,21.4
2016-08-08T00:37:10.624Z,21.3
2016-08-08T00:37:19.887Z,21.3
2016-08-08T00:37:29.884Z,21.4
2016-08-08T00:37:39.877Z,21.4
2016-08-08T00:37:49.875Z,21.4
2016-08-08T00:37:59.873Z,21.3
2016-08-08T00:38:09.873Z,21.3
2016-08-08T00:38:19.862Z,21.3
2016-08-08T00:38:29.859Z,21.3
2016-08-08T00:38:39.854Z,21.3
2016-08-08T00:38:49.849Z,21.3
2016-08-08T00:38:59.842Z,21.3
2016-08-08T00:39:09.840Z,21.3
2016-08-08T00:39:19.838Z,21.3
2016-08-08T00:39:29.832Z,21.3
2016-08-08T00:39:39.825Z,21.3
2016-08-08T00:39:49.821Z,21.3
2016-08-08T00:39:59.817Z,21.3
2016-08-08T00:40:09.813Z,21.3
2016-08-08T00:40:19.807Z,21.3
2016-08-08T00:40:29.805Z,21.3
2016-08-08T00:40:39.799Z,21.3
2016-08-08T00:40:49.794Z,21.3
2016-08-08T00:40:59.790Z,21.3
2016-08-08T00:41:09.787Z,21.3
2016-08-08T00:41:19.780Z,21.3
2016-08-08T00:41:29.777Z,21.2
2016-08-08T00:41:39.770Z,21.3
2016-08-08T00:41:49.770Z,21.3
2016-08-08T00:41:59.765Z,21.3
2016-08-08T00:42:09.766Z,21.3
2016-08-08T00:42:19.756Z,21.2
2016-08-08T00:42:29.751Z,21.3
2016-08-08T00:42:39.746Z,21.3
2016-08-08T00:42:49.742Z,21.3
2016-08-08T00:42:59.737Z,21.3
2016-08-08T00:43:09.733Z,21.3
2016-08-08T00:43:19.731Z,21.3
2016-08-08T00:43:29.724Z,21.3
2016-08-08T00:43:39.721Z,21.2
2016-08-08T00:43:49.715Z,21.2
2016-08-08T00:43:59.710Z,21.3
2016-08-08T00:44:09.706Z,21.2
2016-08-08T00:44:19.703Z,21.2
2016-08-08T00:44:29.697Z,21.2
2016-08-08T00:44:39.694Z,21.3
2016-08-08T00:44:49.688Z,21.2
2016-08-08T00:44:59.682Z,21.2
2016-08-08T00:45:09.678Z,21.2
2016-08-08T00:45:19.672Z,21.2
2016-08-08T00:45:29.669Z,21.2
2016-08-08T00:45:39.672Z,21.3
2016-08-08T00:45:49.659Z,21.2
2016-08-08T00:45:59.666Z,21.3
2016-08-08T00:46:09.650Z,21.2
2016-08-08T00:46:19.645Z,21.2
2016-08-08T00:46:29.644Z,21.2
2016-08-08T00:46:39.639Z,21.2
2016-08-08T00:46:49.636Z,21.2
2016-08-08T00:46:59.631Z,21.2
2016-08-08T00:47:09.626Z,21.2
2016-08-08T00:47:19.620Z,21.2
2016-08-08T00:47:29.615Z,21.2
2016-08-08T00:47:39.610Z,21.2
2016-08-08T00:47:49.609Z,21.2
2016-08-08T00:47:59.604Z,21.2
2016-08-08T00:48:09.606Z,21.2
2016-08-08T00:48:19.593Z,21.2
2016-08-08T00:48:29.590Z,21.2
2016-08-08T00:48:39.596Z,21.2
2016-08-08T00:48:49.580Z,21.2
2016-08-08T00:48:59.578Z,21.2
2016-08-08T00:49:09.572Z,21.2
2016-08-08T00:49:19.568Z,21.2
2016-08-08T00:49:29.564Z,21.2
2016-08-08T00:49:39.558Z,21.2
2016-08-08T00:49:49.553Z,21.2
2016-08-08T00:49:59.549Z,21.2
2016-08-08T00:50:09.545Z,21.2
2016-08-08T00:50:19.541Z,21.2
2016-08-08T00:50:29.536Z,21.2
2016-08-08T00:50:39.531Z,21.2
2016-08-08T00:50:49.527Z,21.2
2016-08-08T00:50:59.522Z,21.2
2016-08-08T00:51:09.518Z,21.2
2016-08-08T00:51:19.515Z,21.2
2016-08-08T00:51:29.509Z,21.2
2016-08-08T00:51:39.505Z,21.2
2016-08-08T00:51:49.504Z,21.2
2016-08-08T00:51:59.495Z,21.2
2016-08-08T00:52:09.492Z,21.2
2016-08-08T00:52:19.484Z,21.2
2016-08-08T00:52:29.482Z,21.2
2016-08-08T00:52:39.478Z,21.2
2016-08-08T00:52:49.474Z,21.2
2016-08-08T00:52:59.467Z,21.2
2016-08-08T00:53:09.465Z,21.2
2016-08-08T00:53:19.461Z,21.2
2016-08-08T00:53:30.188Z,21.2
2016-08-08T00:53:39.451Z,21.2
2016-08-08T00:53:49.446Z,21.3
2016-08-08T00:53:59.443Z,21.3
2016-08-08T00:54:09.437Z,21.3
2016-08-08T00:54:19.434Z,21.3
2016-08-08T00:54:29.430Z,21.3
2016-08-08T00:54:39.424Z,21.3
2016-08-08T00:54:49.420Z,21.3
2016-08-08T00:54:59.414Z,21.3
2016-08-08T00:55:09.415Z,21.3
2016-08-08T00:55:19.408Z,21.3
2016-08-08T00:55:29.400Z,21.2
2016-08-08T00:55:39.397Z,21.2
2016-08-08T00:55:49.393Z,21.3
2016-08-08T00:55:59.385Z,21.2
2016-08-08T00:56:09.385Z,21.2
2016-08-08T00:56:19.381Z,21.2
2016-08-08T00:56:29.375Z,21.2
2016-08-08T00:56:39.372Z,21.2
2016-08-08T00:56:49.365Z,21.2
2016-08-08T00:56:59.364Z,21.2
2016-08-08T00:57:09.359Z,21.2
2016-08-08T00:57:19.351Z,21.2
2016-08-08T00:57:29.347Z,21.2
2016-08-08T00:57:39.344Z,21.2
2016-08-08T00:57:49.339Z,21.2
2016-08-08T00:57:59.338Z,21.2
2016-08-08T00:58:09.329Z,21.2
2016-08-08T00:58:19.324Z,21.2
2016-08-08T00:58:29.321Z,21.2
2016-08-08T00:58:39.316Z,21.2
2016-08-08T00:58:49.312Z,21.2
2016-08-08T00:58:59.307Z,21.2
2016-08-08T00:59:10.033Z,21.2
2016-08-08T00:59:19.298Z,21.2
2016-08-08T00:59:30.024Z,21.2
2016-08-08T00:59:39.289Z,21.2
2016-08-08T00:59:49.287Z,21.2
2016-08-08T00:59:59.279Z,21.2
2016-08-08T01:00:09.279Z,21.2
2016-08-08T01:00:19.271Z,21.2
2016-08-08T01:00:29.269Z,21.2
2016-08-08T01:00:39.263Z,21.2
2016-08-08T01:00:49.257Z,21.2
2016-08-08T01:00:59.254Z,21.2
2016-08-08T01:01:09.250Z,21.2
2016-08-08T01:01:19.247Z,21.2
2016-08-08T01:01:29.241Z,21.2
2016-08-08T01:01:39.234Z,21.2
2016-08-08T01:01:49.231Z,21.2
2016-08-08T01:01:59.227Z,21.2
2016-08-08T01:02:09.952Z,21.2
2016-08-08T01:02:19.218Z,21.2
2016-08-08T01:02:29.217Z,21.2
2016-08-08T01:02:39.208Z,21.2
2016-08-08T01:02:49.206Z,21.2
2016-08-08T01:02:59.200Z,21.2
2016-08-08T01:03:09.195Z,21.2
2016-08-08T01:03:19.189Z,21.2
2016-08-08T01:03:29.187Z,21.2
2016-08-08T01:03:39.182Z,21.2
2016-08-08T01:03:49.177Z,21.2
2016-08-08T01:03:59.171Z,21.2
2016-08-08T01:04:09.170Z,21.2
2016-08-08T01:04:19.175Z,21.2
2016-08-08T01:04:29.160Z,21.2
2016-08-08T01:04:39.155Z,21.2
2016-08-08T01:04:49.150Z,21.2
2016-08-08T01:04:59.145Z,21.2
2016-08-08T01:05:09.147Z,21.2
2016-08-08T01:05:19.137Z,21.2
2016-08-08T01:05:29.134Z,21.1
2016-08-08T01:05:39.128Z,21.1
2016-08-08T01:05:49.122Z,21.1
2016-08-08T01:05:59.119Z,21.1
2016-08-08T01:06:09.115Z,21.1
2016-08-08T01:06:19.110Z,21.1
2016-08-08T01:06:29.107Z,21.1
2016-08-08T01:06:39.837Z,21.1
2016-08-08T01:06:49.098Z,21.1
2016-08-08T01:06:59.089Z,21.1
2016-08-08T01:07:09.089Z,21.1
2016-08-08T01:07:19.085Z,21.1
2016-08-08T01:07:29.081Z,21.1
2016-08-08T01:07:39.075Z,21.1
2016-08-08T01:07:49.068Z,21.1
2016-08-08T01:07:59.068Z,21.1
2016-08-08T01:08:09.062Z,21.1
2016-08-08T01:08:19.056Z,21.1
2016-08-08T01:08:29.052Z,21.1
2016-08-08T01:08:39.047Z,21.1
2016-08-08T01:08:49.042Z,21.1
2016-08-08T01:08:59.039Z,21.1
2016-08-08T01:09:09.033Z,21.1
2016-08-08T01:09:19.758Z,21.1
2016-08-08T01:09:29.024Z,21.1
2016-08-08T01:09:39.033Z,21.1
2016-08-08T01:09:49.016Z,21.1
2016-08-08T01:09:59.012Z,21.1
2016-08-08T01:10:09.007Z,21.1
2016-08-08T01:10:19.004Z,21.1
2016-08-08T01:10:28.999Z,21.1
2016-08-08T01:10:38.996Z,21.1
2016-08-08T01:10:48.988Z,21.1
2016-08-08T01:10:58.988Z,21.1
2016-08-08T01:11:08.980Z,21.1
2016-08-08T01:11:18.976Z,21.1
2016-08-08T01:11:28.970Z,21.1
2016-08-08T01:11:38.968Z,21.1
2016-08-08T01:11:48.964Z,21.1
2016-08-08T01:11:58.961Z,21.1
2016-08-08T01:12:08.954Z,21.1
2016-08-08T01:12:18.949Z,21.1
2016-08-08T01:12:28.948Z,21.1
2016-08-08T01:12:38.940Z,21.1
2016-08-08T01:12:48.938Z,21.1
2016-08-08T01:12:58.929Z,21.1
2016-08-08T01:13:08.926Z,21.1
2016-08-08T01:13:18.921Z,21.1
2016-08-08T01:13:28.918Z,21.1
2016-08-08T01:13:38.912Z,21.1
2016-08-08T01:13:48.908Z,21.2
2016-08-08T01:13:58.905Z,21.2
2016-08-08T01:14:08.902Z,21.2
2016-08-08T01:14:18.896Z,21.2
2016-08-08T01:14:28.890Z,21.1
2016-08-08T01:14:38.886Z,21.2
2016-08-08T01:14:48.879Z,21.2
2016-08-08T01:14:58.877Z,21.2
2016-08-08T01:15:08.871Z,21.2
2016-08-08T01:15:18.866Z,21.2
2016-08-08T01:15:28.864Z,21.2
2016-08-08T01:15:38.859Z,21.1
2016-08-08T01:15:48.856Z,21.2
2016-08-08T01:15:58.852Z,21.2
2016-08-08T01:16:08.845Z,21.1
2016-08-08T01:16:18.842Z,21.1
2016-08-08T01:16:28.838Z,21.1
2016-08-08T01:16:38.833Z,21.1
2016-08-08T01:16:48.829Z,21.1
2016-08-08T01:16:58.825Z,21.1
2016-08-08T01:17:08.820Z,21.1
2016-08-08T01:17:18.820Z,21.1
2016-08-08T01:17:28.810Z,21.1
2016-08-08T01:17:38.807Z,21.1
2016-08-08T01:17:48.801Z,21.1
2016-08-08T01:17:58.798Z,21.1
2016-08-08T01:18:08.790Z,21.1
2016-08-08T01:18:18.788Z,21.1
2016-08-08T01:18:28.782Z,21.1
2016-08-08T01:18:38.778Z,21.1
2016-08-08T01:18:48.779Z,21.1
2016-08-08T01:18:58.767Z,21.1
2016-08-08T01:19:08.765Z,21.1
2016-08-08T01:19:18.761Z,21.1
2016-08-08T01:19:28.756Z,21.1
2016-08-08T01:19:38.753Z,21.1
2016-08-08T01:19:48.747Z,21.1
2016-08-08T01:19:58.743Z,21.1
2016-08-08T01:20:08.738Z,21.1
2016-08-08T01:20:18.736Z,21.1
2016-08-08T01:20:28.731Z,21.1
2016-08-08T01:20:38.724Z,21.1
2016-08-08T01:20:48.721Z,21.1
2016-08-08T01:20:58.716Z,21.1
2016-08-08T01:21:08.712Z,21.1
2016-08-08T01:21:18.707Z,21.1
2016-08-08T01:21:28.701Z,21.1
2016-08-08T01:21:38.700Z,21.1
2016-08-08T01:21:48.692Z,21.1
2016-08-08T01:21:58.689Z,21.1
2016-08-08T01:22:08.685Z,21.1
2016-08-08T01:22:18.681Z,21.1
2016-08-08T01:22:28.675Z,21.1
2016-08-08T01:22:38.671Z,21.1
2016-08-08T01:22:48.666Z,21.1
2016-08-08T01:22:58.661Z,21.1
2016-08-08T01:23:08.660Z,21.1
2016-08-08T01:23:18.653Z,21.1
2016-08-08T01:23:28.649Z,21.1
2016-08-08T01:23:38.648Z,21.1
2016-08-08T01:23:48.641Z,21.1
2016-08-08T01:23:58.637Z,21.1
2016-08-08T01:24:08.631Z,21.1
2016-08-08T01:24:18.627Z,21.1
2016-08-08T01:24:28.619Z,21.1
2016-08-08T01:24:38.623Z,21.1
2016-08-08T01:24:49.342Z,21.1
2016-08-08T01:24:58.607Z,21.1
2016-08-08T01:25:08.612Z,21.1
2016-08-08T01:25:18.599Z,21.1
2016-08-08T01:25:28.596Z,21.1
2016-08-08T01:25:38.594Z,21.1
2016-08-08T01:25:49.314Z,21.1
2016-08-08T01:25:59.314Z,21.1
2016-08-08T01:26:08.577Z,21.1
2016-08-08T01:26:18.572Z,21.1
2016-08-08T01:26:28.569Z,21.1
2016-08-08T01:26:38.563Z,21.1
2016-08-08T01:26:48.559Z,21.1
2016-08-08T01:26:58.556Z,21.1
2016-08-08T01:27:08.556Z,21.1
2016-08-08T01:27:18.545Z,21.1
2016-08-08T01:27:28.542Z,21.1
2016-08-08T01:27:38.538Z,21.1
2016-08-08T01:27:48.533Z,21.1
2016-08-08T01:27:58.528Z,21.1
2016-08-08T01:28:09.252Z,21.1
2016-08-08T01:28:18.518Z,21.1
2016-08-08T01:28:28.514Z,21.1
2016-08-08T01:28:38.509Z,21.1
2016-08-08T01:28:48.509Z,21.1
2016-08-08T01:28:58.501Z,21.1
2016-08-08T01:29:08.497Z,21.1
2016-08-08T01:29:18.492Z,21.1
2016-08-08T01:29:28.490Z,21.1
2016-08-08T01:29:38.481Z,21.1
2016-08-08T01:29:48.480Z,21.1
2016-08-08T01:29:58.475Z,21.1
2016-08-08T01:30:08.470Z,21.1
2016-08-08T01:30:18.467Z,21.1
2016-08-08T01:30:28.462Z,21.1
2016-08-08T01:30:38.456Z,21.1
2016-08-08T01:30:48.454Z,21.1
2016-08-08T01:30:58.444Z,21.1
2016-08-08T01:31:08.443Z,21.1
2016-08-08T01:31:18.439Z,21.1
2016-08-08T01:31:28.434Z,21.1
2016-08-08T01:31:38.431Z,21.1
2016-08-08T01:31:48.424Z,21.1
2016-08-08T01:31:58.421Z,21.1
2016-08-08T01:32:08.414Z,21.1
2016-08-08T01:32:18.419Z,21.1
2016-08-08T01:32:28.407Z,21.1
2016-08-08T01:32:38.402Z,21.1
2016-08-08T01:32:48.402Z,21.1
2016-08-08T01:32:58.393Z,21.1
2016-08-08T01:33:09.117Z,21.1
2016-08-08T01:33:18.384Z,21.1
2016-08-08T01:33:28.382Z,21.1
2016-08-08T01:33:38.375Z,21.1
2016-08-08T01:33:48.371Z,21.2
2016-08-08T01:33:58.368Z,21.2
2016-08-08T01:34:08.362Z,21.2
2016-08-08T01:34:18.359Z,21.2
2016-08-08T01:34:28.356Z,21.2
2016-08-08T01:34:38.346Z,21.2
2016-08-08T01:34:48.345Z,21.2
2016-08-08T01:34:58.337Z,21.2
2016-08-08T01:35:08.337Z,21.2
2016-08-08T01:35:18.330Z,21.2
2016-08-08T01:35:28.326Z,21.2
2016-08-08T01:35:38.323Z,21.1
2016-08-08T01:35:48.319Z,21.1
2016-08-08T01:35:58.312Z,21.1
2016-08-08T01:36:08.308Z,21.2
2016-08-08T01:36:18.303Z,21.2
2016-08-08T01:36:28.300Z,21.2
2016-08-08T01:36:38.296Z,21.2
2016-08-08T01:36:48.290Z,21.2
2016-08-08T01:36:58.284Z,21.2
2016-08-08T01:37:08.283Z,21.1
2016-08-08T01:37:18.274Z,21.1
2016-08-08T01:37:28.272Z,21.1
2016-08-08T01:37:38.268Z,21.1
2016-08-08T01:37:48.262Z,21.1
2016-08-08T01:37:58.264Z,21.1
2016-08-08T01:38:08.253Z,21.1
2016-08-08T01:38:18.248Z,21.1
2016-08-08T01:38:28.246Z,21.1
2016-08-08T01:38:38.241Z,21.1
2016-08-08T01:38:48.236Z,21.1
2016-08-08T01:38:58.233Z,21.1
2016-08-08T01:39:08.230Z,21.1
2016-08-08T01:39:18.225Z,21.1
2016-08-08T01:39:28.219Z,21.1
2016-08-08T01:39:38.219Z,21.1
2016-08-08T01:39:48.209Z,21.1
2016-08-08T01:39:58.205Z,21
2016-08-08T01:40:08.201Z,21
2016-08-08T01:40:18.194Z,21
2016-08-08T01:40:28.191Z,21
2016-08-08T01:40:38.915Z,21
2016-08-08T01:40:48.183Z,21
2016-08-08T01:40:58.178Z,21
2016-08-08T01:41:08.173Z,21
2016-08-08T01:41:18.170Z,21
2016-08-08T01:41:28.165Z,21
2016-08-08T01:41:38.161Z,21
2016-08-08T01:41:48.154Z,21
2016-08-08T01:41:58.151Z,21
2016-08-08T01:42:08.146Z,21
2016-08-08T01:42:18.140Z,21
2016-08-08T01:42:28.138Z,21
2016-08-08T01:42:38.132Z,21
2016-08-08T01:42:48.128Z,21
2016-08-08T01:42:58.123Z,21
2016-08-08T01:43:08.119Z,21
2016-08-08T01:43:18.113Z,21
2016-08-08T01:43:28.111Z,21
2016-08-08T01:43:38.107Z,21
2016-08-08T01:43:48.101Z,21
2016-08-08T01:43:58.098Z,21
2016-08-08T01:44:08.092Z,21
2016-08-08T01:44:18.088Z,21
2016-08-08T01:44:28.084Z,21
2016-08-08T01:44:38.078Z,21
2016-08-08T01:44:48.803Z,21
2016-08-08T01:44:58.070Z,21
2016-08-08T01:45:08.066Z,21
2016-08-08T01:45:18.060Z,21
2016-08-08T01:45:28.056Z,21
2016-08-08T01:45:38.052Z,21
2016-08-08T01:45:48.048Z,21
2016-08-08T01:45:58.041Z,21
2016-08-08T01:46:08.038Z,21
2016-08-08T01:46:18.034Z,21
2016-08-08T01:46:28.030Z,21
2016-08-08T01:46:38.756Z,21
2016-08-08T01:46:48.019Z,21
2016-08-08T01:46:58.016Z,21
2016-08-08T01:47:08.011Z,21
2016-08-08T01:47:18.008Z,21
2016-08-08T01:47:28.000Z,21
2016-08-08T01:47:37.997Z,21
2016-08-08T01:47:47.997Z,21
2016-08-08T01:47:57.987Z,21
2016-08-08T01:48:07.982Z,21
2016-08-08T01:48:17.980Z,21
2016-08-08T01:48:28.706Z,21
2016-08-08T01:48:37.973Z,21
2016-08-08T01:48:47.967Z,21
2016-08-08T01:48:57.961Z,21
2016-08-08T01:49:07.959Z,21
2016-08-08T01:49:17.952Z,21
2016-08-08T01:49:27.950Z,21
2016-08-08T01:49:37.944Z,21
2016-08-08T01:49:47.942Z,21
2016-08-08T01:49:57.934Z,21
2016-08-08T01:50:07.931Z,21
2016-08-08T01:50:17.927Z,21
2016-08-08T01:50:27.921Z,21
2016-08-08T01:50:37.916Z,21
2016-08-08T01:50:47.915Z,21
2016-08-08T01:50:57.911Z,21
2016-08-08T01:51:07.905Z,21
2016-08-08T01:51:17.901Z,21
2016-08-08T01:51:27.895Z,21
2016-08-08T01:51:37.890Z,21
2016-08-08T01:51:48.616Z,21
2016-08-08T01:51:57.880Z,21
2016-08-08T01:52:07.876Z,21
2016-08-08T01:52:17.870Z,20.9
2016-08-08T01:52:27.872Z,21
2016-08-08T01:52:37.863Z,20.9
2016-08-08T01:52:47.860Z,20.9
2016-08-08T01:52:57.856Z,20.9
2016-08-08T01:53:07.851Z,20.9
2016-08-08T01:53:17.846Z,20.9
2016-08-08T01:53:27.842Z,20.9
2016-08-08T01:53:37.835Z,20.9
2016-08-08T01:53:47.831Z,20.9
2016-08-08T01:53:57.828Z,20.9
2016-08-08T01:54:07.822Z,20.9
2016-08-08T01:54:17.819Z,20.9
2016-08-08T01:54:27.814Z,21
2016-08-08T01:54:37.809Z,20.9
2016-08-08T01:54:48.534Z,21
2016-08-08T01:54:57.798Z,21
2016-08-08T01:55:07.796Z,21
2016-08-08T01:55:17.792Z,20.9
2016-08-08T01:55:28.517Z,20.9
2016-08-08T01:55:37.788Z,20.9
2016-08-08T01:55:47.778Z,20.9
2016-08-08T01:55:57.775Z,20.9
2016-08-08T01:56:07.770Z,20.9
2016-08-08T01:56:17.765Z,20.9
2016-08-08T01:56:27.766Z,20.9
2016-08-08T01:56:37.755Z,20.9
2016-08-08T01:56:47.753Z,20.9
2016-08-08T01:56:57.747Z,20.9
2016-08-08T01:57:07.748Z,20.9
2016-08-08T01:57:17.736Z,20.9
2016-08-08T01:57:27.731Z,20.9
2016-08-08T01:57:37.727Z,20.9
2016-08-08T01:57:47.727Z,20.9
2016-08-08T01:57:57.719Z,20.8
2016-08-08T01:58:07.712Z,20.9
2016-08-08T01:58:17.710Z,20.8
2016-08-08T01:58:27.705Z,20.8
2016-08-08T01:58:37.701Z,20.8
2016-08-08T01:58:47.696Z,20.8
2016-08-08T01:58:57.691Z,20.8
2016-08-08T01:59:07.688Z,20.9
2016-08-08T01:59:17.682Z,20.9
2016-08-08T01:59:28.408Z,20.9
2016-08-08T01:59:37.674Z,20.9
2016-08-08T01:59:47.669Z,20.9
2016-08-08T01:59:57.663Z,20.9
2016-08-08T02:00:07.663Z,20.9
2016-08-08T02:00:17.655Z,20.9
2016-08-08T02:00:27.652Z,20.9
2016-08-08T02:00:37.654Z,20.9
2016-08-08T02:00:47.642Z,20.9
2016-08-08T02:00:57.638Z,20.9
2016-08-08T02:01:07.634Z,20.9
2016-08-08T02:01:18.359Z,20.9
2016-08-08T02:01:27.622Z,20.9
2016-08-08T02:01:37.623Z,20.9
2016-08-08T02:01:47.617Z,20.8
2016-08-08T02:01:57.613Z,20.8
2016-08-08T02:02:07.606Z,20.8
2016-08-08T02:02:17.601Z,20.8
2016-08-08T02:02:27.600Z,20.9
2016-08-08T02:02:37.593Z,20.8
2016-08-08T02:02:47.589Z,20.8
2016-08-08T02:02:57.583Z,20.8
2016-08-08T02:03:07.581Z,20.8
2016-08-08T02:03:17.575Z,20.9
2016-08-08T02:03:27.569Z,20.9
2016-08-08T02:03:37.567Z,20.9
2016-08-08T02:03:47.559Z,20.9
2016-08-08T02:03:57.556Z,20.9
2016-08-08T02:04:07.551Z,20.9
2016-08-08T02:04:17.547Z,20.9
2016-08-08T02:04:27.543Z,20.9
2016-08-08T02:04:37.541Z,20.9
2016-08-08T02:04:47.533Z,20.9
2016-08-08T02:04:57.530Z,20.9
2016-08-08T02:05:07.525Z,20.9
2016-08-08T02:05:17.523Z,20.9
2016-08-08T02:05:27.517Z,20.9
2016-08-08T02:05:37.512Z,20.9
2016-08-08T02:05:47.509Z,20.9
2016-08-08T02:05:57.505Z,20.9
2016-08-08T02:06:07.497Z,20.9
2016-08-08T02:06:17.494Z,20.8
2016-08-08T02:06:27.490Z,20.8
2016-08-08T02:06:37.486Z,20.8
2016-08-08T02:06:48.210Z,20.8
2016-08-08T02:06:57.474Z,20.8
2016-08-08T02:07:07.472Z,20.9
2016-08-08T02:07:17.466Z,20.8
2016-08-08T02:07:27.467Z,20.9
2016-08-08T02:07:37.460Z,20.9
2016-08-08T02:07:47.453Z,20.9
2016-08-08T02:07:57.451Z,20.9
2016-08-08T02:08:07.444Z,20.9
2016-08-08T02:08:17.440Z,20.9
2016-08-08T02:08:27.435Z,20.8
2016-08-08T02:08:37.430Z,20.8
2016-08-08T02:08:47.427Z,20.8
2016-08-08T02:08:57.424Z,20.8
2016-08-08T02:09:07.417Z,20.8
2016-08-08T02:09:17.411Z,20.8
2016-08-08T02:09:27.406Z,20.8
2016-08-08T02:09:37.404Z,20.8
2016-08-08T02:09:47.400Z,20.8
2016-08-08T02:09:57.401Z,20.8
2016-08-08T02:10:08.126Z,20.8
2016-08-08T02:10:17.387Z,20.8
2016-08-08T02:10:27.385Z,20.8
2016-08-08T02:10:38.105Z,20.8
2016-08-08T02:10:47.372Z,20.8
2016-08-08T02:10:57.369Z,20.8
2016-08-08T02:11:07.361Z,20.8
2016-08-08T02:11:17.358Z,20.8
2016-08-08T02:11:27.354Z,20.8
2016-08-08T02:11:37.350Z,20.8
2016-08-08T02:11:48.076Z,20.8
2016-08-08T02:11:57.342Z,20.8
2016-08-08T02:12:07.336Z,20.8
2016-08-08T02:12:17.330Z,20.8
2016-08-08T02:12:27.328Z,20.8
2016-08-08T02:12:37.323Z,20.8
2016-08-08T02:12:47.316Z,20.8
2016-08-08T02:12:57.315Z,20.8
2016-08-08T02:13:07.309Z,20.8
2016-08-08T02:13:17.302Z,20.8
2016-08-08T02:13:27.299Z,20.8
2016-08-08T02:13:37.301Z,20.8
2016-08-08T02:13:47.290Z,20.8